• Join FlightAware (Why Join?)
  • Login
  • US Flag 
04:00PM EDT


 

Airport Tracker/Info


-or-


 

Live Flight TrackerFlight Track Log ✈ UCA3599 ✈ 04-Nov-2013 ✈ KBGM - KIAD

Flight Track Log - Related Links

Times and Time Zones

All times are in EST time to prevent confusion due to time zone crossing. See the UCA3599 flight status page for this flight to view local times or setup timezone preferences in your user account.

Time Position Orientation Groundspeed Altitude Reporting Facility
EST Latitude Longitude Course Direction KTS MPH feet Rate Location/Type
06:05AM 42.2317 -76.0303 254° West 257 296 3,000  Level New York Center
06:06AM 42.2186 -76.0908 254° West 180 207 4,400 1,380 Climbing New York Center
06:07AM 42.1672 -76.1175 201° Southwest 165 190 5,800 1,380 Climbing New York Center
06:08AM 42.1175 -76.1583 211° Southwest 185 213 7,200 1,440 Climbing New York Center
06:09AM 42.0700 -76.1964 211° Southwest 205 236 8,700 1,440 Climbing New York Center
06:10AM 42.0139 -76.2392 210° Southwest 215 247 10,100 1,320 Climbing New York Center
06:11AM 41.9619 -76.2822 212° Southwest 215 247 11,400 1,260 Climbing New York Center
06:12AM 41.9147 -76.3172 209° Southwest 220 253 12,700 1,440 Climbing New York Center
06:13AM 41.8583 -76.3628 211° Southwest 220 253 14,300 1,140 Climbing New York Center
06:14AM 41.8147 -76.4036 215° Southwest 220 253 15,000 840 Climbing New York Center
06:15AM 41.7458 -76.4533 208° Southwest 233 268 16,000 480 Climbing New York Center
06:16AM 41.6914 -76.4989 212° Southwest 257 296 16,000  Level New York Center
06:17AM 41.6286 -76.5489 211° Southwest 265 305 16,000  Level New York Center
06:18AM 41.5553 -76.6036 209° Southwest 277 319 16,000  Level New York Center
06:19AM 41.4881 -76.6558 210° Southwest 282 325 16,000  Level New York Center
06:20AM 41.4292 -76.7061 213° Southwest 282 325 16,000  Level New York Center
06:21AM 41.3642 -76.7583 211° Southwest 282 325 16,000  Level New York Center
06:22AM 41.2917 -76.7906 198° South 282 325 16,000  Level New York Center
06:23AM 41.2117 -76.8056 188° South 282 325 16,000  Level New York Center
06:24AM 41.1339 -76.8208 188° South 287 330 16,000  Level New York Center
06:25AM 41.0539 -76.8356 188° South 287 330 16,000  Level New York Center
06:26AM 40.9761 -76.8506 188° South 287 330 16,000  Level New York Center
06:27AM 40.8983 -76.8658 188° South 292 336 16,000  Level New York Center
06:28AM 40.8100 -76.8797 187° South 292 336 16,000  Level New York Center
06:29AM 40.7422 -76.9011 193° South 292 336 16,000  Level New York Center
06:30AM 40.6575 -76.9264 193° South 281 323 16,000  Level New York Center
06:31AM 40.5917 -76.9478 194° South 281 323 16,000  Level New York Center
06:32AM 40.5069 -76.9731 193° South 281 323 16,000 -480 Level New York Center
06:34AM 40.3667 -77.0167 193° South 298 343 14,700 -900 Descending Potomac TRACON
06:35AM 40.2833 -77.0333 189° South 309 356 13,700 -1,140 Descending Potomac TRACON
06:36AM 40.2000 -77.0667 197° South 302 348 12,600 -1,140 Descending Potomac TRACON
06:37AM 40.1333 -77.0833 191° South 287 330 11,500 -1,140 Descending Potomac TRACON
06:38AM 40.0500 -77.1167 197° South 288 331 10,500 -1,140 Descending Potomac TRACON
06:39AM 39.9833 -77.1333 180° South 285 328 9,500 -840 Descending Potomac TRACON
06:40AM 39.9399 -77.1367 188° South  Level FlightAware Approximate
06:40AM 39.9167 -77.1500 191° South 285 328 9,000  Level Potomac TRACON
06:41AM 39.8333 -77.1500 180° South 285 328 8,500 -540 Descending Potomac TRACON
06:42AM 39.7500 -77.1333 171° South 286 329 8,000 -300 Descending Potomac TRACON
06:43AM 39.7000 -77.1667 207° Southwest 270 311 8,000  Level Potomac TRACON
06:44AM 39.6667 -77.2500 243° Southwest 255 293 8,000  Level Potomac TRACON
06:45AM 39.6333 -77.3167 237° Southwest 253 291 8,000 -60 Level Potomac TRACON
06:46AM 39.5833 -77.4000 232° Southwest 257 296 7,900 -480 Descending Potomac TRACON
06:47AM 39.5119 -77.3483 186° South  Level FlightAware Approximate
06:47AM 39.5333 -77.4333 207° Southwest 280 322 7,100  Level Potomac TRACON
06:48AM 39.4432 -77.3500 180° South  Level FlightAware Approximate
06:48AM 39.4667 -77.4167 169° South 266 306 6,200  Level Potomac TRACON
06:49AM 39.3745 -77.3500 180° South  Level FlightAware Approximate
06:49AM 39.4000 -77.3667 150° Southeast 271 312 6,000  Level Potomac TRACON
06:50AM 39.2970 -77.3500 180° South  Level FlightAware Approximate
06:50AM 39.3333 -77.3667 180° South 259 298 5,800  Level Potomac TRACON
06:51AM 39.2195 -77.3500 180° South  Level FlightAware Approximate
06:51AM 39.2500 -77.3667 180° South 269 310 4,900  Level Potomac TRACON
06:52AM 39.1421 -77.3500 180° South  Level FlightAware Approximate
06:52AM 39.1833 -77.3667 180° South 259 298 4,000  Level Potomac TRACON
06:52AM 39.1167 -77.3667 180° South 253 291 4,000  Level Potomac TRACON
06:53AM 39.0500 -77.3500 169° South 244 281 4,000  Level Potomac TRACON
06:54AM 38.9833 -77.3500 180° South 244 281 4,000 -360 Level Potomac TRACON
06:55AM 38.9167 -77.3500 180° South 247 284 3,300 -540 Descending Potomac TRACON
06:56AM 38.8500 -77.3667 191° South 233 268 3,000 -600 Descending Potomac TRACON
06:57AM 38.8000 -77.3667 180° South 192 221 2,100 -540 Descending Potomac TRACON
06:58AM 38.7833 -77.4167 247° West 209 241 2,000 -60 Descending Potomac TRACON
06:59AM 38.8167 -77.4333 339° North 176 203 2,000 -180 Level Potomac TRACON
07:00AM 38.8667 -77.4333 360° North 152 175 1,700 -600 Descending Potomac TRACON
07:01AM 38.9000 -77.4333 360° North 123 142 900 -840 Descending Potomac TRACON
07:03AM 38.9333 -77.4500 349° North  Level FlightAware Approximate
07:10AM 38.9474 -77.4599 349° North  Level Estimated
07:11AM 38.9474 -77.4599 349° North  Level Estimated